Time;durP1;ratioP1;P1;durP2;ratioP2;P2;SDS_P1;SDS_P2;PMS_P1;PMS_P2;Temp;Humidity;BMP_temperature;BMP_pressure;BME280_temperature;BME280_humidity;BME280_pressure;Samples;Min_cycle;Max_cycle;Signal;HPM_P1;HPM_P2
2022/08/07 00:00:09;;;;;;;6.15;4.82;;;14.60;99.90;;;;;;5071586;28;20072;-69
2022/08/07 00:02:35;;;;;;;6.90;5.38;;;14.50;99.90;;;;;;5053639;28;20425;-69
2022/08/07 00:05:01;;;;;;;7.53;4.63;;;14.40;99.90;;;;;;5053086;28;20056;-69
2022/08/07 00:07:26;;;;;;;8.00;4.93;;;14.60;99.90;;;;;;5071543;28;20055;-69
2022/08/07 00:09:52;;;;;;;7.22;5.25;;;14.60;99.90;;;;;;5071544;28;20043;-69
2022/08/07 00:12:17;;;;;;;7.68;4.97;;;14.50;99.90;;;;;;5053434;28;20125;-69
2022/08/07 00:14:43;;;;;;;9.70;4.95;;;14.40;99.90;;;;;;5070731;28;20028;-69
2022/08/07 00:17:09;;;;;;;6.85;4.30;;;14.30;99.90;;;;;;5071252;28;20060;-69
2022/08/07 00:19:34;;;;;;;7.15;4.95;;;14.20;99.90;;;;;;5071087;28;20509;-69
2022/08/07 00:22:00;;;;;;;5.72;4.75;;;14.30;99.90;;;;;;5071326;28;20107;-69
2022/08/07 00:24:26;;;;;;;6.63;4.97;;;14.30;99.90;;;;;;5070847;28;20033;-69
2022/08/07 00:26:51;;;;;;;7.97;5.05;;;14.20;99.90;;;;;;5071230;28;20040;-69
2022/08/07 00:29:18;;;;;;;5.63;4.38;;;14.10;99.90;;;;;;5071067;28;20036;-69
2022/08/07 00:31:44;;;;;;;8.68;5.70;;;14.10;99.90;;;;;;5053293;28;20128;-69
2022/08/07 00:34:09;;;;;;;6.45;4.20;;;14.10;99.90;;;;;;5055541;28;20112;-69
2022/08/07 00:36:36;;;;;;;6.35;4.90;;;14.30;99.90;;;;;;5057162;28;20397;-69
2022/08/07 00:39:02;;;;;;;8.45;5.20;;;14.70;99.90;;;;;;5074387;28;20490;-69
2022/08/07 00:41:31;;;;;;;4.93;4.10;;;14.30;99.90;;;;;;5074491;28;20036;-69
2022/08/07 00:43:57;;;;;;;6.47;4.15;;;14.10;99.90;;;;;;5074191;28;20040;-69
2022/08/07 00:46:22;;;;;;;6.57;4.70;;;14.10;99.90;;;;;;5056510;28;20056;-69
2022/08/07 00:48:48;;;;;;;6.78;4.32;;;14.10;99.90;;;;;;5057243;28;20063;-69
2022/08/07 00:51:14;;;;;;;7.47;4.93;;;13.90;99.90;;;;;;5057468;28;20040;-69
2022/08/07 00:53:40;;;;;;;6.40;4.35;;;14.10;99.90;;;;;;5039808;28;20078;-69
2022/08/07 00:56:06;;;;;;;5.93;4.32;;;13.90;99.90;;;;;;5073940;28;20056;-69
2022/08/07 00:58:32;;;;;;;5.85;4.20;;;13.90;99.90;;;;;;5074308;28;20042;-69
2022/08/07 01:00:58;;;;;;;6.40;4.78;;;13.80;99.90;;;;;;5056523;28;20028;-69
2022/08/07 01:03:23;;;;;;;5.40;4.07;;;13.80;99.90;;;;;;5039695;28;20090;-69
2022/08/07 01:05:51;;;;;;;5.38;4.18;;;13.90;99.90;;;;;;5055979;28;20028;-70
2022/08/07 01:08:17;;;;;;;6.93;4.30;;;13.80;99.90;;;;;;5074166;28;20127;-69
2022/08/07 01:10:43;;;;;;;5.20;4.00;;;13.80;99.90;;;;;;5074050;28;20112;-70
2022/08/07 01:13:09;;;;;;;6.30;4.78;;;13.80;99.90;;;;;;5073885;28;20504;-69
2022/08/07 01:15:36;;;;;;;8.60;5.15;;;13.60;99.90;;;;;;5056060;28;20102;-69
2022/08/07 01:18:01;;;;;;;8.13;4.88;;;13.80;99.90;;;;;;5056128;28;20380;-69
2022/08/07 01:20:33;;;;;;;6.65;4.65;;;13.60;99.90;;;;;;5074069;28;20039;-69
2022/08/07 01:23:00;;;;;;;5.97;4.93;;;13.50;99.90;;;;;;5055741;28;20116;-69
2022/08/07 01:25:26;;;;;;;7.97;4.55;;;13.60;99.90;;;;;;5055736;28;20052;-69
2022/08/07 01:27:52;;;;;;;8.77;5.28;;;13.60;99.90;;;;;;5039256;28;20086;-69
2022/08/07 01:30:17;;;;;;;8.05;4.97;;;13.50;99.90;;;;;;5055966;28;20048;-69
2022/08/07 01:32:43;;;;;;;6.38;4.28;;;13.80;99.90;;;;;;5055641;28;20048;-69
2022/08/07 01:35:09;;;;;;;8.77;4.80;;;13.60;99.90;;;;;;5055347;28;20037;-69
2022/08/07 01:37:35;;;;;;;6.00;4.28;;;13.50;99.90;;;;;;5073584;28;20072;-69
2022/08/07 01:40:03;;;;;;;5.90;4.40;;;13.60;99.90;;;;;;5055580;28;20414;-69
2022/08/07 01:42:29;;;;;;;7.38;4.85;;;13.90;99.90;;;;;;5055462;28;20036;-69
2022/08/07 01:44:55;;;;;;;5.72;4.22;;;13.60;99.90;;;;;;5054774;28;20132;-69
2022/08/07 01:47:21;;;;;;;6.28;4.90;;;13.30;99.90;;;;;;5038679;28;20043;-69
2022/08/07 01:49:46;;;;;;;6.43;4.95;;;13.40;99.90;;;;;;5055361;28;20394;-69
2022/08/07 01:52:13;;;;;;;6.05;4.90;;;14.30;99.90;;;;;;5073237;28;20498;-70
2022/08/07 01:54:40;;;;;;;7.03;4.70;;;13.30;99.90;;;;;;5054967;28;20124;-69
2022/08/07 01:57:14;;;;;;;7.50;4.50;;;13.40;99.90;;;;;;5073129;28;20110;-69
2022/08/07 01:59:50;;;;;;;6.05;4.00;;;13.30;99.90;;;;;;5038784;28;20083;-70
2022/08/07 02:02:34;;;;;;;6.35;4.60;;;13.40;99.90;;;;;;5055398;28;20043;-69
2022/08/07 02:05:10;;;;;;;7.20;5.03;;;13.30;99.90;;;;;;5054729;28;20041;-70
2022/08/07 02:07:41;;;;;;;6.72;4.18;;;13.30;99.90;;;;;;5072994;28;20047;-69
2022/08/07 02:10:08;;;;;;;7.18;4.32;;;13.20;99.90;;;;;;5038264;28;20099;-69
2022/08/07 02:12:39;;;;;;;7.38;4.75;;;13.40;99.90;;;;;;5038165;28;20072;-69
2022/08/07 02:15:07;;;;;;;7.20;4.40;;;13.30;99.90;;;;;;5072181;28;20044;-69
2022/08/07 02:17:33;;;;;;;5.50;4.50;;;13.70;99.90;;;;;;5072835;28;20137;-69
2022/08/07 02:20:01;;;;;;;9.38;4.57;;;13.20;99.90;;;;;;5072836;28;20068;-69
2022/08/07 02:22:29;;;;;;;10.85;4.88;;;13.30;99.90;;;;;;5072459;28;20122;-69
2022/08/07 02:24:56;;;;;;;8.50;4.50;;;13.30;99.90;;;;;;5072070;28;20063;-69
2022/08/07 02:27:24;;;;;;;7.20;4.15;;;13.30;99.90;;;;;;5072656;28;20047;-69
2022/08/07 02:29:51;;;;;;;6.32;4.60;;;13.20;99.90;;;;;;5054792;28;20040;-69
2022/08/07 02:32:18;;;;;;;5.90;4.35;;;13.40;99.90;;;;;;5054410;28;20055;-69
2022/08/07 02:34:47;;;;;;;5.47;4.32;;;13.30;99.90;;;;;;5054191;28;20043;-70
2022/08/07 02:37:14;;;;;;;5.57;4.38;;;13.00;99.90;;;;;;5054452;28;20052;-69
2022/08/07 02:39:43;;;;;;;6.53;4.38;;;13.10;99.90;;;;;;5072466;28;20036;-69
2022/08/07 02:42:09;;;;;;;7.40;4.63;;;13.20;99.90;;;;;;5054403;28;20072;-69
2022/08/07 02:44:36;;;;;;;6.38;4.43;;;13.00;99.90;;;;;;5053976;28;20170;-69
2022/08/07 02:47:03;;;;;;;5.93;4.93;;;13.10;99.90;;;;;;5054249;28;20040;-69
2022/08/07 02:49:29;;;;;;;6.40;4.40;;;12.90;99.90;;;;;;5054438;28;20049;-69
2022/08/07 02:51:57;;;;;;;7.55;4.97;;;13.00;99.90;;;;;;5072238;28;20055;-69
2022/08/07 02:54:26;;;;;;;6.63;4.68;;;12.80;99.90;;;;;;5053612;28;20076;-69
2022/08/07 02:56:53;;;;;;;6.38;4.70;;;13.00;99.90;;;;;;5071413;28;20047;-69
2022/08/07 02:59:23;;;;;;;8.43;5.45;;;13.00;99.90;;;;;;5054038;28;20041;-70
2022/08/07 03:01:49;;;;;;;5.88;4.47;;;12.80;99.90;;;;;;5053896;28;20490;-69
2022/08/07 03:04:16;;;;;;;8.45;4.63;;;13.00;99.90;;;;;;5037062;28;20048;-69
2022/08/07 03:06:43;;;;;;;7.53;4.88;;;12.80;99.90;;;;;;5071737;28;20524;-70
2022/08/07 03:09:09;;;;;;;7.85;4.45;;;12.80;99.90;;;;;;5053953;28;20406;-69
2022/08/07 03:11:36;;;;;;;6.28;4.65;;;12.80;99.90;;;;;;5071964;28;20036;-69
2022/08/07 03:14:04;;;;;;;6.45;5.07;;;12.80;99.90;;;;;;5053253;28;20072;-70
2022/08/07 03:16:31;;;;;;;7.35;4.88;;;12.70;99.90;;;;;;5053817;28;20046;-69
2022/08/07 03:18:58;;;;;;;8.65;5.68;;;12.80;99.90;;;;;;5071525;28;20037;-69
2022/08/07 03:21:25;;;;;;;8.02;4.82;;;12.80;99.90;;;;;;5071864;28;20112;-70
2022/08/07 03:23:55;;;;;;;7.03;4.70;;;12.70;99.90;;;;;;5053360;28;20090;-69
2022/08/07 03:26:24;;;;;;;6.22;4.68;;;12.70;99.90;;;;;;5071668;28;20482;-70
2022/08/07 03:28:50;;;;;;;6.88;5.28;;;12.70;99.90;;;;;;5037046;28;20098;-70
2022/08/07 03:31:19;;;;;;;7.35;5.22;;;12.80;99.90;;;;;;5053871;28;20547;-70
2022/08/07 03:33:58;;;;;;;6.97;4.65;;;12.80;99.90;;;;;;5053583;28;20127;-69
2022/08/07 03:36:26;;;;;;;6.20;4.80;;;12.70;99.90;;;;;;5071816;28;20086;-69
2022/08/07 03:38:56;;;;;;;5.90;4.30;;;12.70;99.90;;;;;;5071597;28;20036;-70
2022/08/07 03:41:22;;;;;;;8.45;5.95;;;12.60;99.90;;;;;;5054061;28;20045;-70
2022/08/07 03:43:48;;;;;;;7.22;4.60;;;12.50;99.90;;;;;;5071104;28;20045;-69
2022/08/07 03:46:14;;;;;;;6.43;4.55;;;12.50;99.90;;;;;;5053468;28;20045;-69
2022/08/07 03:48:41;;;;;;;5.75;3.97;;;12.60;99.90;;;;;;5037152;28;20079;-69
2022/08/07 03:51:07;;;;;;;5.97;4.53;;;12.60;99.90;;;;;;5071597;28;20047;-69
2022/08/07 03:53:33;;;;;;;7.80;4.60;;;12.60;99.90;;;;;;5071204;28;20126;-69
2022/08/07 03:56:00;;;;;;;5.63;4.43;;;13.30;99.90;;;;;;5071255;28;20040;-69
2022/08/07 03:58:28;;;;;;;9.70;5.50;;;12.30;99.90;;;;;;5071265;28;20036;-69
2022/08/07 04:00:56;;;;;;;6.30;4.47;;;13.20;99.90;;;;;;5053706;28;20120;-69
2022/08/07 04:03:22;;;;;;;7.30;4.97;;;12.40;99.90;;;;;;5053572;28;20402;-69
2022/08/07 04:05:47;;;;;;;7.10;4.60;;;12.60;99.90;;;;;;5071154;28;20040;-69
2022/08/07 04:08:14;;;;;;;7.75;4.35;;;12.30;99.90;;;;;;5074605;28;20032;-69
2022/08/07 04:10:41;;;;;;;6.68;4.18;;;12.40;99.90;;;;;;5075130;28;20036;-69
2022/08/07 04:13:09;;;;;;;5.60;4.25;;;12.40;99.90;;;;;;5074676;28;20029;-69
2022/08/07 04:15:35;;;;;;;7.05;5.30;;;12.40;99.90;;;;;;5056643;28;20036;-69
2022/08/07 04:18:01;;;;;;;5.47;4.18;;;12.30;99.90;;;;;;5057210;28;20048;-69
2022/08/07 04:20:27;;;;;;;7.68;5.10;;;12.40;99.90;;;;;;5057100;28;20062;-69
2022/08/07 04:22:54;;;;;;;6.15;4.60;;;12.30;99.90;;;;;;5074866;28;20041;-69
2022/08/07 04:25:21;;;;;;;9.60;5.07;;;12.30;99.90;;;;;;5074596;28;20513;-69
2022/08/07 04:27:47;;;;;;;7.90;5.25;;;12.40;99.90;;;;;;5056895;28;20041;-69
2022/08/07 04:30:13;;;;;;;5.95;4.22;;;12.40;99.90;;;;;;5056779;28;20048;-69
2022/08/07 04:32:39;;;;;;;8.40;4.68;;;12.40;99.90;;;;;;5056642;28;20118;-69
2022/08/07 04:35:06;;;;;;;11.10;5.35;;;12.50;99.90;;;;;;5074233;28;20119;-69
2022/08/07 04:37:34;;;;;;;7.40;4.85;;;12.40;99.90;;;;;;5056649;28;20052;-69
2022/08/07 04:40:00;;;;;;;6.68;4.75;;;12.30;99.90;;;;;;5056486;28;20127;-69
2022/08/07 04:42:29;;;;;;;7.18;4.15;;;12.50;99.90;;;;;;5056547;28;20115;-69
2022/08/07 04:44:57;;;;;;;9.70;4.57;;;12.60;99.90;;;;;;5074207;28;20094;-69
2022/08/07 04:47:40;;;;;;;7.18;4.47;;;12.50;99.90;;;;;;5074444;28;20036;-69
2022/08/07 04:50:15;;;;;;;7.70;4.22;;;12.50;99.90;;;;;;5056393;28;20131;-69
2022/08/07 04:52:52;;;;;;;7.75;4.57;;;12.60;99.90;;;;;;5040224;28;20110;-69
2022/08/07 04:55:38;;;;;;;9.10;4.43;;;12.60;99.90;;;;;;5056164;28;20468;-69
2022/08/07 04:58:33;;;;;;;7.82;5.05;;;12.60;99.90;;;;;;5006594;28;20053;-70
2022/08/07 05:01:18;;;;;;;6.22;4.22;;;12.80;99.90;;;;;;5035505;28;20498;-69
2022/08/07 05:03:50;;;;;;;7.13;4.93;;;12.90;99.90;;;;;;5055987;28;20048;-69
2022/08/07 05:06:26;;;;;;;6.38;4.38;;;12.90;99.90;;;;;;5039545;28;20534;-69
2022/08/07 05:09:02;;;;;;;6.22;4.20;;;12.90;99.90;;;;;;5074124;28;20484;-69
2022/08/07 05:11:34;;;;;;;5.45;4.30;;;12.80;99.90;;;;;;5056463;28;20402;-69
2022/08/07 05:14:23;;;;;;;6.93;4.13;;;12.90;99.90;;;;;;5074662;28;20041;-69
2022/08/07 05:16:52;;;;;;;6.38;4.32;;;13.20;99.90;;;;;;5022055;28;20049;-69
2022/08/07 05:19:20;;;;;;;7.65;4.18;;;13.20;99.90;;;;;;5055366;28;20087;-69
2022/08/07 05:21:53;;;;;;;5.03;4.00;;;13.20;99.90;;;;;;5055765;28;20036;-69
2022/08/07 05:24:20;;;;;;;10.25;4.30;;;13.20;99.90;;;;;;5055665;28;20060;-69
2022/08/07 05:26:48;;;;;;;6.95;5.05;;;13.40;99.90;;;;;;5055764;28;20044;-69
2022/08/07 05:29:16;;;;;;;9.05;5.20;;;13.30;99.90;;;;;;5055660;28;20052;-69
2022/08/07 05:31:44;;;;;;;8.70;4.43;;;13.50;99.90;;;;;;5055904;28;20468;-69
2022/08/07 05:34:11;;;;;;;7.55;4.43;;;13.60;99.90;;;;;;5072969;28;20486;-70
2022/08/07 05:36:43;;;;;;;6.18;4.13;;;13.60;99.90;;;;;;5073312;28;20045;-69
2022/08/07 05:39:09;;;;;;;6.10;3.80;;;13.70;99.90;;;;;;5038960;28;20036;-69
2022/08/07 05:41:37;;;;;;;7.15;3.92;;;13.80;99.90;;;;;;5055559;28;20036;-69
2022/08/07 05:44:03;;;;;;;6.45;4.30;;;13.80;99.90;;;;;;5055047;28;20040;-69
2022/08/07 05:46:29;;;;;;;6.47;4.20;;;14.10;99.90;;;;;;5055420;28;20048;-69
2022/08/07 05:48:56;;;;;;;4.85;3.58;;;14.10;99.90;;;;;;5073187;28;20094;-68
2022/08/07 05:51:23;;;;;;;5.65;3.67;;;14.20;99.90;;;;;;5055513;28;20513;-69
2022/08/07 05:53:49;;;;;;;7.03;3.88;;;14.30;99.90;;;;;;5054900;28;20040;-69
2022/08/07 05:56:16;;;;;;;8.07;4.25;;;14.30;99.90;;;;;;5055041;28;20041;-69
2022/08/07 05:58:45;;;;;;;6.80;3.95;;;14.50;99.90;;;;;;5038671;28;20098;-69
2022/08/07 06:01:13;;;;;;;13.20;4.22;;;14.60;99.90;;;;;;5072999;28;20502;-69
2022/08/07 06:03:43;;;;;;;4.95;3.30;;;14.70;99.90;;;;;;5072793;28;20040;-69
2022/08/07 06:06:10;;;;;;;4.90;3.72;;;15.00;99.90;;;;;;5073207;28;20123;-69
2022/08/07 06:08:39;;;;;;;5.50;4.13;;;14.80;99.90;;;;;;5055249;28;20048;-69
2022/08/07 06:11:05;;;;;;;7.47;3.90;;;15.20;99.90;;;;;;5055135;28;20036;-69
2022/08/07 06:13:31;;;;;;;6.80;3.53;;;15.20;99.90;;;;;;5072936;28;20433;-69
2022/08/07 06:15:57;;;;;;;5.28;3.58;;;17.00;99.90;;;;;;5054553;28;20087;-69
2022/08/07 06:18:24;;;;;;;4.72;3.53;;;15.70;99.90;;;;;;5073162;28;20082;-69
2022/08/07 06:20:52;;;;;;;6.43;3.33;;;15.60;99.90;;;;;;5072740;28;20032;-69
2022/08/07 06:23:17;;;;;;;7.47;3.55;;;15.50;99.90;;;;;;5072612;28;20115;-69
2022/08/07 06:25:44;;;;;;;5.82;3.97;;;15.70;99.90;;;;;;5054267;28;20127;-71
2022/08/07 06:28:09;;;;;;;5.85;3.60;;;16.80;99.90;;;;;;5054479;28;20098;-71
2022/08/07 06:30:37;;;;;;;5.05;3.25;;;16.10;99.90;;;;;;5054424;28;20040;-71
2022/08/07 06:33:04;;;;;;;4.53;3.08;;;16.20;99.90;;;;;;5072433;28;20070;-71
2022/08/07 06:35:30;;;;;;;7.55;3.13;;;16.10;99.90;;;;;;5053975;28;20040;-69
2022/08/07 06:37:57;;;;;;;4.88;3.28;;;16.30;99.90;;;;;;5054504;28;20048;-72
2022/08/07 06:40:23;;;;;;;6.68;3.30;;;16.40;99.90;;;;;;5072403;28;20040;-69
2022/08/07 06:42:50;;;;;;;5.97;3.03;;;16.50;99.90;;;;;;5072166;28;20154;-70
2022/08/07 06:45:18;;;;;;;5.20;3.30;;;17.10;99.90;;;;;;5053847;28;20036;-70
2022/08/07 06:47:44;;;;;;;3.42;2.90;;;16.70;99.90;;;;;;5072222;28;20113;-69
2022/08/07 06:50:10;;;;;;;5.40;3.30;;;16.90;99.90;;;;;;5054302;28;20042;-69
2022/08/07 06:52:41;;;;;;;4.65;3.72;;;16.90;99.90;;;;;;5054313;28;20037;-70
2022/08/07 06:55:23;;;;;;;4.30;3.03;;;17.80;99.90;;;;;;5053731;28;20048;-70
2022/08/07 06:57:51;;;;;;;7.50;3.38;;;16.90;99.90;;;;;;5072172;28;20041;-69
2022/08/07 07:00:20;;;;;;;4.30;2.80;;;17.20;99.90;;;;;;5072253;28;20401;-69
2022/08/07 07:02:46;;;;;;;2.92;2.40;;;17.30;99.90;;;;;;5071995;28;20032;-71
2022/08/07 07:05:12;;;;;;;3.65;2.92;;;17.40;99.90;;;;;;5037066;28;20524;-69
2022/08/07 07:07:39;;;;;;;6.82;3.30;;;18.00;99.90;;;;;;5053747;28;20047;-69
2022/08/07 07:10:05;;;;;;;5.00;2.38;;;18.50;99.90;;;;;;5037400;28;20040;-69
2022/08/07 07:12:47;;;;;;;3.60;2.35;;;17.60;99.90;;;;;;5053753;28;20409;-70
2022/08/07 07:15:17;;;;;;;3.83;2.45;;;17.70;99.90;;;;;;5036795;28;20082;-70
2022/08/07 07:17:51;;;;;;;3.00;2.33;;;17.90;99.90;;;;;;5053925;28;20032;-69
2022/08/07 07:20:22;;;;;;;4.82;2.45;;;17.80;99.90;;;;;;5053740;28;20037;-69
2022/08/07 07:22:48;;;;;;;2.97;1.90;;;18.00;99.90;;;;;;5071710;28;20040;-69
2022/08/07 07:25:16;;;;;;;4.72;2.08;;;18.80;99.90;;;;;;5053776;28;20398;-69
2022/08/07 07:27:52;;;;;;;2.60;1.92;;;19.40;99.90;;;;;;5071698;28;20036;-70
2022/08/07 07:30:23;;;;;;;4.88;1.98;;;18.40;99.90;;;;;;5053730;28;20076;-70
2022/08/07 07:32:51;;;;;;;2.47;1.98;;;18.30;99.90;;;;;;5071505;28;20041;-69
2022/08/07 07:35:17;;;;;;;3.00;2.10;;;18.40;99.90;;;;;;5071095;28;20079;-70
2022/08/07 07:37:46;;;;;;;3.75;2.33;;;19.00;99.90;;;;;;5037000;28;20036;-70
2022/08/07 07:40:18;;;;;;;6.30;3.28;;;18.70;99.90;;;;;;5071847;28;20447;-70
2022/08/07 07:42:49;;;;;;;5.20;3.15;;;18.50;99.90;;;;;;5040711;28;20044;-70
2022/08/07 07:45:17;;;;;;;5.30;3.83;;;18.50;99.90;;;;;;5071035;28;20443;-70
2022/08/07 07:47:45;;;;;;;4.80;3.45;;;18.60;99.90;;;;;;5068141;28;20039;-70
2022/08/07 07:50:14;;;;;;;9.00;3.97;;;18.40;99.90;;;;;;5074885;28;20044;-70
2022/08/07 07:52:42;;;;;;;5.05;3.95;;;18.70;99.90;;;;;;5075086;28;20040;-70
2022/08/07 07:55:09;;;;;;;8.43;4.22;;;18.60;99.90;;;;;;5074543;28;20042;-70
2022/08/07 07:57:35;;;;;;;6.20;3.40;;;19.30;99.90;;;;;;5067359;28;20098;-69
2022/08/07 08:00:04;;;;;;;4.53;3.53;;;18.80;99.90;;;;;;5049458;28;20037;-70
2022/08/07 08:02:33;;;;;;;4.00;3.20;;;18.80;99.90;;;;;;5085537;28;20406;-70
2022/08/07 08:05:02;;;;;;;6.78;3.42;;;18.80;99.90;;;;;;5085900;28;20044;-69
2022/08/07 08:07:29;;;;;;;4.20;3.40;;;19.70;99.90;;;;;;5057687;28;20041;-70
2022/08/07 08:09:56;;;;;;;3.72;2.95;;;18.80;99.90;;;;;;5085136;28;20548;-70
2022/08/07 08:12:22;;;;;;;5.40;3.10;;;18.90;99.90;;;;;;5083502;28;20039;-70
2022/08/07 08:14:48;;;;;;;5.13;3.22;;;19.00;99.90;;;;;;5083753;28;20036;-69
2022/08/07 08:17:14;;;;;;;3.85;2.95;;;19.40;99.90;;;;;;5084157;28;20037;-68
2022/08/07 08:19:41;;;;;;;5.38;3.33;;;19.50;99.90;;;;;;5066250;28;20052;-70
2022/08/07 08:27:41;;;;;;;4.95;3.60;;;18.80;99.90;;;;;;5065893;28;20137;-70
2022/08/07 08:30:10;;;;;;;5.70;3.53;;;19.80;99.90;;;;;;5083379;28;20082;-70
2022/08/07 08:32:45;;;;;;;5.88;3.50;;;19.00;99.90;;;;;;5061120;28;20037;-70
2022/08/07 08:35:15;;;;;;;6.55;3.25;;;19.20;99.90;;;;;;5074259;28;20037;-70
2022/08/07 08:37:44;;;;;;;11.35;3.75;;;20.00;99.90;;;;;;5074568;28;20387;-70
2022/08/07 08:40:17;;;;;;;3.83;3.00;;;19.80;99.90;;;;;;5074640;28;20036;-70
2022/08/07 08:42:52;;;;;;;5.97;2.80;;;19.80;99.90;;;;;;5074880;28;20032;-70
2022/08/07 08:45:37;;;;;;;4.32;3.42;;;20.10;99.90;;;;;;5056466;28;20036;-69
2022/08/07 08:48:29;;;;;;;3.47;3.17;;;20.10;99.90;;;;;;5074465;28;20040;-70
2022/08/07 08:51:01;;;;;;;4.88;3.58;;;20.20;99.90;;;;;;5072287;28;20131;-70
2022/08/07 08:53:41;;;;;;;6.55;3.03;;;21.20;99.90;;;;;;5073010;28;20495;-69
2022/08/07 08:56:29;;;;;;;5.60;3.00;;;20.50;99.90;;;;;;5056048;28;20036;-70
2022/08/07 08:59:19;;;;;;;5.70;2.88;;;20.00;99.90;;;;;;5056261;28;20037;-70
2022/08/07 09:02:12;;;;;;;5.43;3.40;;;19.70;99.90;;;;;;5039518;28;20079;-70
2022/08/07 09:04:50;;;;;;;;;;;19.50;99.90;;;;;;5034928;28;20040;-70
2022/08/07 09:07:40;;;;;;;5.50;2.92;;;20.00;99.90;;;;;;5070621;28;19917;-70
2022/08/07 09:10:22;;;;;;;5.20;3.03;;;20.30;99.90;;;;;;5040851;28;20115;-70
2022/08/07 09:13:09;;;;;;;4.10;2.83;;;20.50;99.90;;;;;;5052204;28;20043;-70
2022/08/07 09:16:01;;;;;;;3.60;2.83;;;20.20;99.90;;;;;;5035251;28;20123;-69
2022/08/07 09:18:41;;;;;;;5.82;3.20;;;20.50;99.90;;;;;;5052509;28;20142;-70
2022/08/07 09:21:34;;;;;;;3.75;2.63;;;20.60;99.90;;;;;;5035777;28;20113;-70
2022/08/07 09:24:12;;;;;;;4.55;2.88;;;20.20;99.90;;;;;;5068508;28;20052;-70
2022/08/07 09:26:56;;;;;;;5.00;2.28;;;20.10;99.90;;;;;;5052154;28;20521;-69
2022/08/07 09:29:40;;;;;;;5.63;2.72;;;20.40;99.90;;;;;;5044929;28;20049;-70
2022/08/07 09:32:27;;;;;;;4.00;2.70;;;20.30;99.90;;;;;;5030121;28;20067;-69
2022/08/07 09:34:57;;;;;;;3.28;2.97;;;21.00;99.90;;;;;;5026671;28;20592;-70
2022/08/07 09:38:02;;;;;;;4.65;3.28;;;20.80;99.90;;;;;;5036569;28;20105;-70
2022/08/07 09:40:46;;;;;;;3.60;3.08;;;20.90;99.90;;;;;;5069576;28;20652;-70
2022/08/07 09:43:33;;;;;;;5.25;2.88;;;21.30;99.90;;;;;;5034032;28;20044;-70
2022/08/07 09:46:28;;;;;;;3.88;3.15;;;21.60;99.90;;;;;;5066904;28;20040;-70
2022/08/07 09:49:31;;;;;;;5.15;2.78;;;20.90;99.90;;;;;;5051252;28;20063;-70
2022/08/07 09:52:23;;;;;;;5.03;2.55;;;20.40;99.90;;;;;;5048083;28;20044;-70
2022/08/07 09:55:08;;;;;;;5.95;3.00;;;20.30;99.90;;;;;;5068802;28;20039;-70
2022/08/07 09:57:53;;;;;;;6.55;2.63;;;20.00;99.90;;;;;;5069313;28;20048;-70
2022/08/07 10:00:23;;;;;;;3.85;2.90;;;20.60;99.90;;;;;;5033697;28;20039;-70
2022/08/07 10:03:07;;;;;;;2.72;2.38;;;21.10;99.90;;;;;;5069281;28;20143;-69
2022/08/07 10:05:48;;;;;;;6.20;2.63;;;21.10;99.70;;;;;;5035321;28;20045;-70
2022/08/07 10:08:37;;;;;;;3.92;2.90;;;21.40;99.90;;;;;;5071920;28;20051;-69
2022/08/07 10:11:26;;;;;;;4.10;3.00;;;21.10;99.90;;;;;;5054013;28;20413;-70
2022/08/07 10:14:06;;;;;;;5.50;2.33;;;20.80;99.90;;;;;;5054267;28;20048;-70
2022/08/07 10:16:43;;;;;;;4.43;2.30;;;21.30;99.90;;;;;;5038285;28;20132;-70
2022/08/07 10:19:25;;;;;;;3.55;2.80;;;21.60;99.90;;;;;;5054906;28;20041;-70
2022/08/07 10:22:03;;;;;;;3.65;2.10;;;21.40;99.90;;;;;;5054840;28;20051;-70
2022/08/07 10:24:53;;;;;;;2.88;2.22;;;21.20;99.90;;;;;;5072343;28;20090;-70
2022/08/07 10:27:35;;;;;;;2.95;2.17;;;21.20;99.90;;;;;;5054757;28;20047;-70
2022/08/07 10:30:13;;;;;;;2.05;1.80;;;21.30;99.90;;;;;;5054564;28;20047;-70
2022/08/07 10:32:57;;;;;;;2.72;2.08;;;21.50;99.70;;;;;;5072550;28;20040;-70
2022/08/07 10:35:28;;;;;;;3.33;1.92;;;23.00;99.90;;;;;;5054024;28;20037;-67
2022/08/07 10:38:31;;;;;;;2.50;2.30;;;22.80;99.90;;;;;;5053951;28;20127;-70
2022/08/07 10:41:40;;;;;;;2.80;2.10;;;21.90;99.90;;;;;;5059867;28;20485;-69
2022/08/07 10:44:33;;;;;;;3.08;1.85;;;22.00;99.90;;;;;;5069444;28;20071;-70
2022/08/07 10:47:29;;;;;;;4.30;2.38;;;22.30;99.90;;;;;;5052277;28;20045;-70
2022/08/07 10:50:19;;;;;;;2.38;1.85;;;22.00;99.20;;;;;;5067453;28;20052;-70
2022/08/07 10:52:52;;;;;;;3.30;1.95;;;22.10;99.90;;;;;;5037420;28;20494;-70
2022/08/07 10:55:25;;;;;;;;;;;22.90;99.90;;;;;;5071998;28;20445;-70
2022/08/07 10:58:21;;;;;;;3.65;2.10;;;22.60;98.30;;;;;;5053965;28;20389;-69
2022/08/07 11:01:23;;;;;;;5.03;2.63;;;22.00;97.70;;;;;;5060999;28;20046;-69
2022/08/07 11:04:14;;;;;;;4.38;2.03;;;22.60;98.70;;;;;;5050515;28;20032;-70
2022/08/07 11:07:10;;;;;;;2.38;1.80;;;22.70;98.50;;;;;;5048318;28;20036;-70
2022/08/07 11:09:42;;;;;;;2.55;2.22;;;23.00;98.80;;;;;;5073378;28;20040;-70
2022/08/07 11:12:21;;;;;;;;;;;22.60;98.70;;;;;;5074378;28;20489;-69
2022/08/07 11:14:56;;;;;;;4.95;2.15;;;22.50;98.30;;;;;;5081528;22;20440;-72
2022/08/07 11:17:37;;;;;;;2.45;1.88;;;22.80;98.70;;;;;;5049617;28;20041;-72
2022/08/07 11:20:23;;;;;;;3.28;2.08;;;23.10;97.70;;;;;;5055493;28;20033;-72
2022/08/07 11:23:13;;;;;;;4.55;2.20;;;23.30;97.70;;;;;;5058826;28;20036;-72
2022/08/07 11:25:51;;;;;;;3.03;2.17;;;23.30;97.90;;;;;;5049004;28;20056;-72
2022/08/07 11:28:28;;;;;;;2.65;2.28;;;23.30;97.50;;;;;;5031835;28;20048;-72
2022/08/07 11:31:03;;;;;;;3.90;2.47;;;23.30;97.40;;;;;;5031709;28;20045;-72
2022/08/07 11:33:48;;;;;;;5.53;2.53;;;23.00;97.90;;;;;;5047073;28;20069;-72
2022/08/07 11:36:51;;;;;;;5.68;2.42;;;22.50;97.40;;;;;;5030132;28;20450;-73
2022/08/07 11:39:55;;;;;;;4.97;2.42;;;22.40;97.60;;;;;;5026960;28;20495;-73
2022/08/07 11:42:46;;;;;;;4.07;2.20;;;21.90;97.60;;;;;;5010295;28;20038;-73
2022/08/07 11:45:30;;;;;;;7.05;3.10;;;22.20;98.00;;;;;;5040394;28;20049;-73
2022/08/07 11:47:55;;;;;;;3.53;1.90;;;22.40;97.90;;;;;;5030282;28;20499;-74
2022/08/07 11:50:34;;;;;;;5.22;2.35;;;22.60;97.90;;;;;;5030468;28;20045;-72
2022/08/07 11:53:15;;;;;;;4.05;2.70;;;22.40;98.20;;;;;;5029793;28;20076;-73
2022/08/07 11:56:19;;;;;;;8.18;2.80;;;22.00;97.70;;;;;;5029695;28;20487;-73
2022/08/07 11:59:29;;;;;;;5.95;2.78;;;22.00;97.80;;;;;;4997120;28;20111;-73
2022/08/07 12:02:31;;;;;;;3.30;2.72;;;22.00;98.70;;;;;;4973449;28;20097;-73
2022/08/07 12:05:27;;;;;;;5.50;2.47;;;22.40;98.40;;;;;;5030833;28;20046;-73
2022/08/07 12:08:03;;;;;;;4.07;3.00;;;22.70;97.50;;;;;;5029886;28;20076;-72
2022/08/07 12:10:39;;;;;;;4.80;2.78;;;22.80;97.80;;;;;;5029946;28;20057;-73
2022/08/07 12:13:27;;;;;;;3.13;2.53;;;23.30;98.10;;;;;;5038640;28;20056;-73
2022/08/07 12:15:59;;;;;;;3.70;2.60;;;23.20;97.50;;;;;;5025457;28;20414;-73
2022/08/07 12:19:00;;;;;;;4.03;2.45;;;23.70;97.80;;;;;;5030026;28;20472;-72
2022/08/07 12:21:34;;;;;;;3.28;2.42;;;22.80;96.60;;;;;;5029722;28;20040;-73
2022/08/07 12:24:15;;;;;;;5.32;2.22;;;22.90;97.00;;;;;;5029249;28;20049;-74
2022/08/07 12:26:57;;;;;;;3.45;1.95;;;23.20;96.70;;;;;;5030476;28;20045;-73
2022/08/07 12:29:50;;;;;;;2.58;1.90;;;23.50;96.90;;;;;;5033381;28;20050;-73
2022/08/07 12:32:53;;;;;;;2.97;2.28;;;23.20;97.10;;;;;;5034344;28;20116;-73
2022/08/07 12:35:22;;;;;;;3.75;2.15;;;22.80;97.00;;;;;;5032907;28;20055;-74
2022/08/07 12:37:50;;;;;;;2.58;1.63;;;23.10;97.60;;;;;;5033066;28;20037;-73
2022/08/07 12:40:21;;;;;;;5.57;2.35;;;22.70;97.40;;;;;;5034333;28;20536;-73
2022/08/07 12:42:51;;;;;;;4.18;2.28;;;22.90;97.40;;;;;;5043901;28;20033;-74
2022/08/07 12:45:21;;;;;;;2.67;1.80;;;23.30;97.60;;;;;;5043197;28;20458;-73
2022/08/07 12:48:25;;;;;;;4.57;2.03;;;22.60;97.40;;;;;;5030496;28;20044;-74
2022/08/07 12:51:08;;;;;;;4.55;2.20;;;22.30;97.70;;;;;;4973473;28;20574;-73
2022/08/07 12:53:40;;;;;;;;;;;22.80;97.00;;;;;;4989104;28;20404;-73
2022/08/07 12:56:30;;;;;;;2.20;1.55;;;22.20;95.70;;;;;;4994160;28;20520;-73
2022/08/07 12:58:58;;;;;;;2.42;1.50;;;23.00;96.50;;;;;;5030299;28;20044;-73
2022/08/07 13:01:32;;;;;;;3.85;1.10;;;23.20;96.60;;;;;;5030738;28;20407;-73
2022/08/07 13:04:14;;;;;;;1.85;1.27;;;23.50;95.70;;;;;;5026102;28;20121;-73
2022/08/07 13:07:05;;;;;;;1.70;1.20;;;23.60;95.50;;;;;;5007661;28;20396;-74
2022/08/07 13:09:47;;;;;;;2.38;1.50;;;25.00;96.50;;;;;;5032594;28;20046;-74
2022/08/07 13:12:21;;;;;;;4.45;1.33;;;24.10;95.60;;;;;;5031581;28;20049;-74
2022/08/07 13:15:16;;;;;;;2.15;1.08;;;23.60;95.50;;;;;;5036102;28;20047;-74
2022/08/07 13:17:50;;;;;;;2.47;1.30;;;24.10;95.20;;;;;;5033889;28;20037;-73
2022/08/07 13:20:49;;;;;;;2.10;1.15;;;24.50;95.70;;;;;;5049292;28;20037;-73
2022/08/07 13:23:22;;;;;;;3.35;1.20;;;24.10;94.50;;;;;;5034050;28;20096;-74
2022/08/07 13:26:01;;;;;;;3.42;1.20;;;23.90;95.10;;;;;;5032168;28;20037;-73